Time;durP1;ratioP1;P1;durP2;ratioP2;P2;SDS_P1;SDS_P2;PMS_P1;PMS_P2;Temp;Humidity;BMP_temperature;BMP_pressure;BME280_temperature;BME280_humidity;BME280_pressure;Samples;Min_cycle;Max_cycle;Signal;HPM_P1;HPM_P2
2023/01/25 00:01:34;;;;;;;31.00;24.43;;;2.50;99.90;;;;;;5114419;28;20445;-94
2023/01/25 00:04:01;;;;;;;32.63;24.97;;;2.60;99.90;;;;;;5113623;28;20496;-92
2023/01/25 00:06:36;;;;;;;36.17;25.37;;;2.40;99.90;;;;;;5116198;28;20434;-94
2023/01/25 00:09:05;;;;;;;32.30;25.07;;;2.60;99.90;;;;;;5116362;28;20445;-93
2023/01/25 00:11:32;;;;;;;36.83;27.70;;;2.80;99.90;;;;;;5112794;28;20458;-93
2023/01/25 00:14:00;;;;;;;34.93;26.00;;;2.70;99.90;;;;;;5114756;28;20465;-92
2023/01/25 00:16:35;;;;;;;36.50;26.27;;;2.40;99.90;;;;;;5116160;28;20453;-93
2023/01/25 00:19:06;;;;;;;37.07;27.50;;;2.30;99.90;;;;;;5116164;28;20442;-92
2023/01/25 00:21:38;;;;;;;35.93;26.83;;;2.50;99.90;;;;;;5114264;28;20449;-94
2023/01/25 00:24:13;;;;;;;31.93;24.23;;;2.50;99.90;;;;;;5117238;28;20501;-92
2023/01/25 00:35:20;;;;;;;36.73;24.53;;;2.60;99.90;;;;;;5121178;22;20476;-92
2023/01/25 00:38:24;;;;;;;31.97;25.23;;;2.60;99.90;;;;;;5118112;28;20434;-91
2023/01/25 00:55:15;;;;;;;33.87;25.87;;;3.10;99.90;;;;;;5114221;28;20438;-92
2023/01/25 01:06:23;;;;;;;34.90;24.80;;;3.10;99.90;;;;;;5118398;28;20432;-94
2023/01/25 01:08:54;;;;;;;32.87;25.30;;;3.10;99.90;;;;;;5115527;28;20467;-92
2023/01/25 01:11:43;;;;;;;36.40;25.90;;;2.90;99.90;;;;;;5111081;28;20453;-94
2023/01/25 01:16:52;;;;;;;33.70;25.57;;;2.90;99.90;;;;;;5107964;28;20489;-94
2023/01/25 01:19:20;;;;;;;33.57;24.93;;;2.90;99.90;;;;;;5111220;28;20453;-93
2023/01/25 01:22:15;;;;;;;34.80;25.93;;;3.00;99.90;;;;;;5111668;28;20503;-93
2023/01/25 01:24:42;;;;;;;34.40;25.30;;;2.80;99.90;;;;;;5112782;28;20494;-92
2023/01/25 01:27:17;;;;;;;35.37;24.67;;;2.50;99.90;;;;;;5108756;28;20485;-93
2023/01/25 01:32:25;;;;;;;34.40;25.30;;;2.30;99.90;;;;;;5109228;28;20818;-94
2023/01/25 01:34:53;;;;;;;33.93;25.07;;;2.50;99.90;;;;;;5101123;28;20504;-91
2023/01/25 01:37:21;;;;;;;32.83;23.87;;;2.80;99.90;;;;;;5098551;28;20492;-91
2023/01/25 01:39:48;;;;;;;33.13;24.73;;;2.90;99.90;;;;;;5098470;28;20868;-92
2023/01/25 01:42:18;;;;;;;33.07;25.17;;;2.90;99.90;;;;;;5098486;28;20457;-90
2023/01/25 01:44:47;;;;;;;32.13;25.37;;;2.90;99.90;;;;;;5099565;28;20568;-94
2023/01/25 01:47:20;;;;;;;36.70;27.00;;;2.80;99.90;;;;;;5098200;28;20481;-91
2023/01/25 01:49:52;;;;;;;33.63;24.63;;;2.70;99.90;;;;;;5096320;28;20456;-92
2023/01/25 01:52:22;;;;;;;36.80;25.80;;;2.50;99.90;;;;;;5096462;28;20469;-92
2023/01/25 01:54:55;;;;;;;37.90;26.77;;;2.50;99.90;;;;;;5095772;28;20553;-93
2023/01/25 01:57:26;;;;;;;35.90;25.57;;;2.40;99.90;;;;;;5096098;28;20815;-91
2023/01/25 02:00:19;;;;;;;37.67;27.43;;;2.00;99.90;;;;;;5096722;28;20947;-92
2023/01/25 02:02:48;;;;;;;34.23;25.23;;;2.00;99.90;;;;;;5100925;28;20481;-94
2023/01/25 02:05:20;;;;;;;36.77;27.00;;;2.00;99.90;;;;;;5095690;28;20986;-93
2023/01/25 02:07:50;;;;;;;36.90;27.30;;;2.30;99.90;;;;;;5077127;28;20481;-90
2023/01/25 02:10:18;;;;;;;35.20;25.20;;;2.40;99.90;;;;;;5095923;28;20586;-92
2023/01/25 02:12:48;;;;;;;35.93;26.90;;;2.50;99.90;;;;;;5095523;28;20495;-92
2023/01/25 02:15:15;;;;;;;35.43;26.43;;;2.70;99.90;;;;;;5095692;28;21086;-90
2023/01/25 02:17:43;;;;;;;36.53;26.47;;;2.70;99.90;;;;;;5095780;28;20483;-93
2023/01/25 02:20:18;;;;;;;33.37;26.63;;;2.80;99.90;;;;;;5095631;28;20448;-94
2023/01/25 02:22:54;;;;;;;34.50;25.77;;;2.80;99.90;;;;;;5095031;28;20927;-89
2023/01/25 02:25:23;;;;;;;36.17;26.50;;;2.80;99.90;;;;;;5086209;28;20449;-91
2023/01/25 02:27:54;;;;;;;35.23;26.67;;;2.80;99.90;;;;;;5091314;28;20529;-93
2023/01/25 02:30:22;;;;;;;40.37;29.13;;;2.80;99.90;;;;;;5099452;28;20472;-93
2023/01/25 02:32:49;;;;;;;38.30;28.17;;;2.70;99.90;;;;;;5110986;28;20552;-92
2023/01/25 02:35:19;;;;;;;39.10;28.30;;;2.70;99.90;;;;;;5096918;28;20477;-92
2023/01/25 02:37:47;;;;;;;38.87;29.00;;;2.70;99.90;;;;;;5081618;28;20483;-93
2023/01/25 02:40:14;;;;;;;38.77;29.00;;;2.70;99.90;;;;;;5096021;28;20935;-92
2023/01/25 02:42:47;;;;;;;41.97;29.87;;;2.40;99.90;;;;;;5095446;28;20480;-91
2023/01/25 02:45:17;;;;;;;36.53;25.90;;;2.30;99.90;;;;;;5095646;28;20457;-92
2023/01/25 02:47:47;;;;;;;41.13;29.70;;;2.40;99.90;;;;;;5086635;28;20501;-93
2023/01/25 02:50:14;;;;;;;40.67;29.43;;;2.20;99.90;;;;;;5105702;28;20448;-89
2023/01/25 02:52:41;;;;;;;40.73;28.90;;;2.20;99.90;;;;;;5097294;28;20485;-89
2023/01/25 02:55:10;;;;;;;40.30;28.73;;;2.40;99.90;;;;;;5079901;28;20886;-93
2023/01/25 02:57:36;;;;;;;41.97;30.23;;;2.50;99.90;;;;;;5115604;28;20456;-91
2023/01/25 03:00:06;;;;;;;40.27;29.00;;;2.40;99.90;;;;;;5086033;28;20532;-93
2023/01/25 03:02:33;;;;;;;41.70;30.17;;;2.50;99.90;;;;;;5095468;28;20664;-91
2023/01/25 03:05:02;;;;;;;41.73;29.73;;;2.60;99.90;;;;;;5092360;28;20459;-94
2023/01/25 03:07:29;;;;;;;45.13;31.63;;;2.70;99.90;;;;;;5096144;28;20571;-92
2023/01/25 03:09:56;;;;;;;42.10;29.93;;;2.70;99.90;;;;;;5114856;28;20487;-91
2023/01/25 03:12:23;;;;;;;43.57;31.13;;;2.60;99.90;;;;;;5114700;28;20530;-93
2023/01/25 03:14:50;;;;;;;39.87;29.30;;;2.60;99.90;;;;;;5107193;28;20467;-91
2023/01/25 03:17:20;;;;;;;43.87;31.33;;;2.70;99.90;;;;;;5085727;28;20452;-93
2023/01/25 03:19:47;;;;;;;42.83;30.83;;;2.70;99.90;;;;;;5094449;28;20467;-92
2023/01/25 03:22:14;;;;;;;44.77;31.00;;;2.80;99.90;;;;;;5090428;28;20815;-92
2023/01/25 03:24:41;;;;;;;45.63;32.70;;;2.80;99.90;;;;;;5090262;28;20465;-91
2023/01/25 03:27:12;;;;;;;44.07;31.60;;;2.70;99.90;;;;;;5089873;28;20450;-92
2023/01/25 03:29:40;;;;;;;44.67;31.40;;;2.70;99.90;;;;;;5088444;28;21035;-90
2023/01/25 03:32:08;;;;;;;44.00;31.53;;;2.50;99.90;;;;;;5087794;28;20916;-90
2023/01/25 03:34:37;;;;;;;44.90;32.17;;;2.70;99.90;;;;;;5090410;28;20563;-93
2023/01/25 03:37:04;;;;;;;50.97;43.22;;;2.90;99.90;;;;;;5088727;28;20453;-93
2023/01/25 03:39:31;;;;;;;47.67;34.83;;;2.90;99.90;;;;;;5090104;28;20241;-91
2023/01/25 03:41:59;;;;;;;46.23;33.20;;;3.00;99.90;;;;;;5094310;28;20441;-95
2023/01/25 03:44:25;;;;;;;46.63;33.20;;;2.70;99.90;;;;;;5081875;28;20477;-92
2023/01/25 03:46:52;;;;;;;43.73;30.77;;;2.80;99.90;;;;;;5114695;28;20441;-93
2023/01/25 03:49:20;;;;;;;47.27;32.83;;;2.40;99.90;;;;;;5083620;28;20578;-93
2023/01/25 03:51:50;;;;;;;39.93;29.97;;;2.40;99.90;;;;;;5094845;28;21024;-92
2023/01/25 03:54:18;;;;;;;42.47;30.23;;;2.60;99.90;;;;;;5094707;28;20493;-90
2023/01/25 03:56:46;;;;;;;43.37;31.20;;;2.50;99.90;;;;;;5090671;28;20929;-90
2023/01/25 03:59:13;;;;;;;40.30;29.80;;;2.50;99.90;;;;;;5091642;28;20469;-92
2023/01/25 04:01:41;;;;;;;45.30;31.70;;;2.50;99.90;;;;;;5074928;28;20558;-92
2023/01/25 04:04:09;;;;;;;51.13;32.33;;;2.70;99.90;;;;;;5093472;28;20492;-90
2023/01/25 04:06:36;;;;;;;48.37;32.90;;;2.60;99.90;;;;;;5106788;28;20998;-90
2023/01/25 04:09:07;;;;;;;42.70;30.83;;;2.60;99.90;;;;;;5095333;28;20892;-91
2023/01/25 04:11:35;;;;;;;47.13;32.17;;;2.60;99.90;;;;;;5096734;28;20485;-92
2023/01/25 04:14:02;;;;;;;49.77;34.07;;;2.70;99.90;;;;;;5086435;28;20509;-92
2023/01/25 04:16:30;;;;;;;48.90;34.13;;;2.70;99.90;;;;;;5105483;28;20533;-92
2023/01/25 04:18:59;;;;;;;48.27;32.63;;;2.70;99.90;;;;;;5102336;28;20548;-92
2023/01/25 04:21:26;;;;;;;43.70;30.80;;;2.60;99.90;;;;;;5065760;28;20947;-91
2023/01/25 04:23:53;;;;;;;41.83;29.77;;;1.90;99.90;;;;;;5094246;28;20980;-92
2023/01/25 04:26:21;;;;;;;43.80;31.30;;;2.10;99.90;;;;;;5096988;28;20941;-94
2023/01/25 04:28:49;;;;;;;42.73;31.67;;;2.10;99.90;;;;;;5097305;28;20481;-90
2023/01/25 04:31:16;;;;;;;46.13;32.10;;;2.20;99.90;;;;;;5091926;28;20504;-90
2023/01/25 04:33:43;;;;;;;45.67;32.37;;;2.20;99.90;;;;;;5089459;28;20477;-90
2023/01/25 04:36:10;;;;;;;41.80;30.77;;;2.40;99.90;;;;;;5105078;28;20953;-91
2023/01/25 04:38:37;;;;;;;50.03;33.30;;;2.40;99.90;;;;;;5082731;28;20462;-91
2023/01/25 04:44:34;;;;;;;48.53;32.07;;;2.40;99.90;;;;;;5098861;28;20500;-92
2023/01/25 04:53:00;;;;;;;46.63;32.43;;;2.60;99.90;;;;;;5089785;28;20528;-93
2023/01/25 04:55:27;;;;;;;46.07;32.10;;;2.70;99.90;;;;;;5097351;28;20454;-94
2023/01/25 05:01:20;;;;;;;46.67;32.10;;;2.70;99.90;;;;;;5095443;28;20514;-92
2023/01/25 05:04:14;;;;;;;51.42;45.90;;;2.60;99.90;;;;;;5113962;28;20432;-92
2023/01/25 05:07:01;;;;;;;49.13;34.93;;;2.50;99.90;;;;;;5116135;28;20205;-92
2023/01/25 05:09:49;;;;;;;43.87;31.90;;;2.70;99.90;;;;;;5098931;28;20465;-93
2023/01/25 05:15:39;;;;;;;42.10;29.20;;;2.60;99.90;;;;;;5111663;28;20881;-93
2023/01/25 05:23:55;;;;;;;42.87;29.90;;;2.40;99.90;;;;;;5107283;28;20469;-92
2023/01/25 05:27:02;;;;;;;41.80;29.07;;;2.10;99.90;;;;;;5130456;28;20437;-95
2023/01/25 05:38:32;;;;;;;45.37;30.33;;;2.00;99.90;;;;;;5100912;28;20461;-94
2023/01/25 05:40:59;;;;;;;43.97;29.27;;;2.10;99.90;;;;;;5108038;28;20487;-92
2023/01/25 05:46:39;;;;;;;41.60;29.73;;;2.10;99.90;;;;;;5093715;28;20438;-95
2023/01/25 05:51:48;;;;;;;38.00;27.77;;;2.20;99.90;;;;;;5095746;28;20440;-92
2023/01/25 05:54:18;;;;;;;37.63;27.80;;;2.00;99.90;;;;;;5077406;28;20612;-95
2023/01/25 05:56:48;;;;;;;43.67;28.23;;;1.90;99.90;;;;;;5076971;28;20516;-93
2023/01/25 05:59:16;;;;;;;47.10;39.85;;;1.90;99.90;;;;;;5085931;28;20795;-92
2023/01/25 06:01:45;;;;;;;43.57;32.67;;;2.10;99.90;;;;;;5117053;28;20287;-94
2023/01/25 06:04:16;;;;;;;42.60;30.17;;;2.20;99.90;;;;;;5100309;28;20498;-91
2023/01/25 06:06:47;;;;;;;42.87;28.70;;;2.30;99.90;;;;;;5114194;28;20441;-90
2023/01/25 06:09:21;;;;;;;41.77;27.90;;;2.30;99.90;;;;;;5116865;28;20971;-92
2023/01/25 06:11:48;;;;;;;38.53;28.57;;;2.20;99.90;;;;;;5077122;28;20487;-92
2023/01/25 06:14:16;;;;;;;40.60;28.23;;;2.20;99.90;;;;;;5075246;28;20462;-92
2023/01/25 06:16:43;;;;;;;41.63;27.17;;;2.20;99.90;;;;;;5081208;28;20533;-90
2023/01/25 06:19:13;;;;;;;39.60;26.97;;;2.20;99.90;;;;;;5081745;28;20447;-90
2023/01/25 06:21:42;;;;;;;39.67;27.80;;;2.10;99.90;;;;;;5074888;28;20486;-89
2023/01/25 06:24:09;;;;;;;39.37;28.43;;;2.20;99.90;;;;;;5088288;28;21059;-92
2023/01/25 06:26:38;;;;;;;36.33;27.27;;;1.80;99.90;;;;;;5074757;28;21024;-92
2023/01/25 06:29:07;;;;;;;38.60;27.60;;;1.30;99.90;;;;;;5090223;28;20567;-91
2023/01/25 06:31:34;;;;;;;41.43;29.73;;;1.40;99.90;;;;;;5099340;28;20565;-93
2023/01/25 06:34:05;;;;;;;42.33;27.47;;;1.60;99.90;;;;;;5105761;28;20475;-92
2023/01/25 06:36:32;;;;;;;40.47;28.40;;;1.80;99.90;;;;;;5098170;28;20545;-93
2023/01/25 06:38:59;;;;;;;40.57;27.37;;;1.50;99.90;;;;;;5102285;28;20593;-92
2023/01/25 06:41:26;;;;;;;42.60;28.17;;;1.60;99.90;;;;;;5094485;28;20455;-92
2023/01/25 06:43:57;;;;;;;42.50;28.60;;;2.00;99.90;;;;;;5085334;28;20560;-92
2023/01/25 06:46:24;;;;;;;40.87;29.03;;;2.00;99.90;;;;;;5095070;28;20490;-93
2023/01/25 06:48:52;;;;;;;42.27;28.87;;;2.20;99.90;;;;;;5093968;28;20473;-91
2023/01/25 06:51:19;;;;;;;40.73;28.90;;;2.20;99.90;;;;;;5095081;28;20540;-92
2023/01/25 06:53:47;;;;;;;39.67;28.07;;;2.30;99.90;;;;;;5095123;28;20513;-91
2023/01/25 06:56:17;;;;;;;42.57;29.63;;;2.20;99.90;;;;;;5095080;28;20443;-93
2023/01/25 06:58:46;;;;;;;51.50;29.73;;;2.00;99.90;;;;;;5095178;28;20453;-92
2023/01/25 07:01:18;;;;;;;46.87;29.37;;;1.90;99.90;;;;;;5097348;28;21004;-90
2023/01/25 07:03:48;;;;;;;38.57;26.97;;;2.10;99.90;;;;;;5097696;28;20473;-91
2023/01/25 07:06:17;;;;;;;41.50;28.33;;;2.10;99.90;;;;;;5100197;28;20482;-92
2023/01/25 07:08:44;;;;;;;41.70;29.30;;;2.20;99.90;;;;;;5098328;28;20564;-90
2023/01/25 07:11:23;;;;;;;45.00;28.90;;;2.10;99.90;;;;;;5098605;28;20483;-93
2023/01/25 07:13:50;;;;;;;46.47;28.37;;;2.20;99.90;;;;;;5099640;28;20493;-92
2023/01/25 07:16:20;;;;;;;41.17;27.77;;;2.00;99.90;;;;;;5099658;28;20941;-90
2023/01/25 07:18:49;;;;;;;40.80;28.90;;;1.40;99.90;;;;;;5095478;28;20450;-93
2023/01/25 07:21:22;;;;;;;41.13;28.90;;;1.60;99.90;;;;;;5094845;28;20537;-94
2023/01/25 07:23:50;;;;;;;42.33;30.00;;;1.60;99.90;;;;;;5094598;28;20450;-92
2023/01/25 07:26:20;;;;;;;45.03;30.73;;;1.80;99.90;;;;;;5094629;28;20821;-91
2023/01/25 07:28:48;;;;;;;43.97;28.83;;;1.80;99.90;;;;;;5095148;28;20501;-93
2023/01/25 07:31:16;;;;;;;42.97;28.13;;;1.80;99.90;;;;;;5095257;28;20469;-95
2023/01/25 07:33:52;;;;;;;45.07;30.80;;;1.90;99.90;;;;;;5096249;28;20516;-92
2023/01/25 07:36:33;;;;;;;43.60;29.97;;;1.90;99.90;;;;;;5096059;28;20449;-92
2023/01/25 07:39:02;;;;;;;44.17;30.57;;;1.90;99.90;;;;;;5097823;28;20489;-92
2023/01/25 07:44:11;;;;;;;49.27;30.83;;;1.70;99.90;;;;;;5102564;28;20528;-90
2023/01/25 07:46:47;;;;;;;43.20;29.23;;;1.80;99.90;;;;;;5103059;28;20462;-92
2023/01/25 07:49:19;;;;;;;47.23;31.13;;;1.50;99.90;;;;;;5104389;28;20516;-93
2023/01/25 07:51:53;;;;;;;47.13;31.00;;;1.50;99.90;;;;;;5098630;28;20474;-92
2023/01/25 07:54:23;;;;;;;48.13;32.20;;;1.50;99.90;;;;;;5080317;28;20472;-93
2023/01/25 07:56:53;;;;;;;49.93;32.77;;;1.40;99.90;;;;;;5098769;28;21011;-92
2023/01/25 07:59:27;;;;;;;48.27;32.00;;;1.30;99.90;;;;;;5096791;28;20477;-91
2023/01/25 08:01:55;;;;;;;49.33;31.63;;;1.10;99.90;;;;;;5102486;28;20477;-90
2023/01/25 08:04:30;;;;;;;48.60;32.73;;;1.40;99.90;;;;;;5103250;28;20457;-91
2023/01/25 08:07:03;;;;;;;50.90;32.50;;;1.60;99.90;;;;;;5103213;28;20461;-91
2023/01/25 08:09:33;;;;;;;48.10;31.73;;;1.30;99.90;;;;;;5102625;28;20511;-92
2023/01/25 08:12:07;;;;;;;48.50;32.47;;;1.20;99.90;;;;;;5101561;28;20449;-93
2023/01/25 08:14:38;;;;;;;53.33;32.53;;;1.00;99.90;;;;;;5107519;28;20525;-92
2023/01/25 08:20:29;;;;;;;52.63;31.50;;;1.00;99.90;;;;;;5099938;28;20404;-92
2023/01/25 08:22:59;;;;;;;50.17;31.90;;;0.90;99.90;;;;;;5097969;28;20476;-92
2023/01/25 08:25:29;;;;;;;74.40;40.13;;;1.00;99.90;;;;;;5099322;28;20452;-94
2023/01/25 08:28:02;;;;;;;65.60;36.67;;;0.80;99.90;;;;;;5102391;28;20472;-90
2023/01/25 08:30:28;;;;;;;54.00;34.60;;;0.80;99.90;;;;;;5103721;28;20484;-91
2023/01/25 08:33:24;;;;;;;57.90;35.70;;;0.80;99.90;;;;;;5084063;28;20460;-92
2023/01/25 08:35:56;;;;;;;51.37;31.10;;;0.80;99.90;;;;;;5102838;28;20469;-93
2023/01/25 08:38:23;;;;;;;51.37;33.03;;;1.00;99.90;;;;;;5103017;28;20781;-91
2023/01/25 08:40:50;;;;;;;54.97;34.17;;;1.10;99.90;;;;;;5097925;28;20929;-92
2023/01/25 08:43:47;;;;;;;53.67;33.50;;;1.20;99.90;;;;;;5083445;28;20450;-94
2023/01/25 08:46:16;;;;;;;52.30;32.17;;;1.20;99.90;;;;;;5081483;28;20522;-94
2023/01/25 08:48:43;;;;;;;54.70;32.73;;;1.00;99.90;;;;;;5077083;28;20948;-91
2023/01/25 08:51:14;;;;;;;58.47;35.97;;;1.10;99.90;;;;;;5077169;28;20863;-90
2023/01/25 08:53:41;;;;;;;59.97;36.43;;;1.30;99.90;;;;;;5076538;28;20498;-92
2023/01/25 08:56:10;;;;;;;53.80;34.40;;;1.40;99.90;;;;;;5076214;28;20457;-91
2023/01/25 08:58:38;;;;;;;56.90;35.40;;;1.30;99.90;;;;;;5076499;28;20497;-91
2023/01/25 09:01:07;;;;;;;58.30;36.07;;;1.20;99.90;;;;;;5076161;28;20462;-90
2023/01/25 09:03:35;;;;;;;58.10;36.13;;;1.10;99.90;;;;;;5076502;28;20528;-91
2023/01/25 09:06:03;;;;;;;58.97;35.93;;;0.80;99.90;;;;;;5077539;28;20455;-93
2023/01/25 09:08:36;;;;;;;52.87;33.63;;;1.00;99.90;;;;;;5078253;28;20812;-96
2023/01/25 09:11:05;;;;;;;58.33;34.87;;;1.20;99.90;;;;;;5076334;28;20478;-92
2023/01/25 09:13:32;;;;;;;56.03;34.93;;;1.30;99.90;;;;;;5078001;28;20474;-93
2023/01/25 09:16:00;;;;;;;56.53;35.03;;;1.40;99.90;;;;;;5060151;28;20474;-92
2023/01/25 09:18:28;;;;;;;57.87;35.83;;;1.30;99.90;;;;;;5078183;28;20933;-91
2023/01/25 09:20:55;;;;;;;54.97;35.63;;;1.10;99.90;;;;;;5078587;28;20481;-91
2023/01/25 09:23:28;;;;;;;63.97;38.33;;;1.20;99.90;;;;;;5088197;28;20475;-94
2023/01/25 09:26:09;;;;;;;57.77;33.73;;;1.30;99.90;;;;;;5095311;28;20447;-95
2023/01/25 09:28:36;;;;;;;56.07;33.90;;;1.10;99.90;;;;;;5123675;28;20521;-93
2023/01/25 09:31:26;;;;;;;57.03;34.17;;;1.00;99.90;;;;;;5122474;28;20488;-93
2023/01/25 09:34:08;;;;;;;55.23;34.07;;;1.00;99.90;;;;;;5099532;28;20468;-93
2023/01/25 09:39:20;;;;;;;57.93;34.50;;;0.90;99.90;;;;;;5112321;28;20434;-94
2023/01/25 09:42:19;;;;;;;61.33;37.00;;;0.90;99.90;;;;;;5104811;28;20471;-93
2023/01/25 09:45:06;;;;;;;57.83;32.90;;;0.80;99.90;;;;;;5088365;28;20564;-93
2023/01/25 09:47:42;;;;;;;59.20;35.60;;;0.80;99.90;;;;;;5097156;28;20450;-93
2023/01/25 09:50:37;;;;;;;59.80;34.60;;;0.70;99.90;;;;;;5112874;28;20512;-95
2023/01/25 09:53:29;;;;;;;59.47;33.17;;;0.60;99.90;;;;;;5112630;28;20467;-94
2023/01/25 09:56:10;;;;;;;60.57;35.30;;;0.80;99.90;;;;;;5117053;28;20430;-92
2023/01/25 09:58:46;;;;;;;63.53;36.57;;;0.80;99.90;;;;;;5117448;28;20441;-95
2023/01/25 10:01:27;;;;;;;62.03;36.10;;;0.60;99.90;;;;;;5114179;28;20453;-94
2023/01/25 10:04:03;;;;;;;59.40;34.70;;;0.90;99.90;;;;;;5117714;28;20474;-92
2023/01/25 10:06:40;;;;;;;64.83;36.30;;;0.80;99.90;;;;;;5115073;28;20487;-95
2023/01/25 10:09:27;;;;;;;65.87;35.93;;;0.70;99.90;;;;;;5114351;28;20433;-94
2023/01/25 10:11:54;;;;;;;61.43;35.60;;;0.70;99.90;;;;;;5101909;28;20465;-92
2023/01/25 10:14:34;;;;;;;58.93;34.90;;;0.50;99.90;;;;;;5102781;28;20442;-93
2023/01/25 10:17:07;;;;;;;63.07;35.83;;;0.70;99.90;;;;;;5101011;28;20868;-93
2023/01/25 10:19:49;;;;;;;62.10;36.33;;;0.80;99.90;;;;;;5100437;28;20445;-92
2023/01/25 10:22:24;;;;;;;68.20;38.20;;;0.90;99.90;;;;;;5100986;28;20454;-93
2023/01/25 10:25:15;;;;;;;65.80;37.00;;;1.10;99.90;;;;;;5100720;28;20476;-94
2023/01/25 10:27:50;;;;;;;71.30;39.40;;;1.20;99.90;;;;;;5101481;28;20483;-95
2023/01/25 10:33:18;;;;;;;64.73;37.67;;;1.20;99.90;;;;;;5219779;22;20473;-86
2023/01/25 10:35:54;;;;;;;67.57;39.17;;;1.30;99.90;;;;;;5098756;28;20437;-86
2023/01/25 10:38:59;;;;;;;65.07;38.33;;;1.20;99.90;;;;;;5113370;28;20481;-85
2023/01/25 10:45:41;;;;;;;59.87;36.80;;;1.50;99.90;;;;;;5075179;28;20451;-88
2023/01/25 10:48:39;;;;;;;63.70;36.07;;;1.50;99.90;;;;;;5274661;22;20493;-95
2023/01/25 10:51:28;;;;;;;66.33;37.43;;;1.70;99.90;;;;;;5103351;28;20489;-94
2023/01/25 10:54:03;;;;;;;62.47;35.33;;;1.70;99.90;;;;;;5107099;28;20458;-94
2023/01/25 10:59:23;;;;;;;67.27;36.97;;;1.70;99.90;;;;;;5430083;23;20478;-92
2023/01/25 11:04:38;;;;;;;63.40;37.57;;;1.70;99.90;;;;;;5149323;23;20470;-93
2023/01/25 11:16:39;;;;;;;67.77;41.10;;;1.40;99.90;;;;;;4060482;22;20236;-84
2023/01/25 11:19:36;;;;;;;67.53;40.13;;;1.40;99.90;;;;;;5114619;28;20951;-85
2023/01/25 11:22:24;;;;;;;62.00;37.20;;;1.70;99.90;;;;;;5114119;28;20457;-86
2023/01/25 11:25:25;;;;;;;66.70;38.43;;;1.60;99.90;;;;;;5096574;28;20456;-86
2023/01/25 11:28:13;;;;;;;65.47;36.83;;;1.70;99.90;;;;;;5053795;28;20443;-86
2023/01/25 11:33:16;;;;;;;63.17;37.43;;;2.00;99.90;;;;;;5149881;22;20472;-94
2023/01/25 11:36:15;;;;;;;71.40;37.63;;;2.00;99.90;;;;;;5086681;28;20457;-93
2023/01/25 11:39:03;;;;;;;61.23;36.10;;;2.10;99.90;;;;;;5086661;28;20562;-94
2023/01/25 11:41:51;;;;;;;62.60;37.10;;;1.90;99.90;;;;;;5083457;28;20464;-92
2023/01/25 11:45:05;;;;;;;59.40;36.13;;;1.60;99.90;;;;;;5064738;28;20466;-91
2023/01/25 11:47:44;;;;;;;60.07;35.67;;;2.00;99.90;;;;;;5051274;28;20446;-91
2023/01/25 11:50:19;;;;;;;62.43;35.40;;;2.20;99.90;;;;;;5081561;28;20573;-92
2023/01/25 11:53:43;;;;;;;64.50;37.37;;;2.50;99.90;;;;;;5084859;28;20491;-91
2023/01/25 11:56:35;;;;;;;63.43;36.10;;;2.20;99.90;;;;;;5110394;23;20471;-92
2023/01/25 11:59:21;;;;;;;62.07;36.90;;;1.90;99.90;;;;;;5099903;28;20516;-92
2023/01/25 12:02:07;;;;;;;62.40;36.57;;;1.50;99.90;;;;;;5098659;28;20429;-91
2023/01/25 12:05:22;;;;;;;57.80;35.60;;;1.80;99.90;;;;;;5079998;28;20981;-91
2023/01/25 12:07:59;;;;;;;60.20;35.57;;;1.80;99.90;;;;;;4993397;28;20441;-92
2023/01/25 12:10:37;;;;;;;60.57;36.37;;;1.80;99.90;;;;;;5086712;28;20491;-92
2023/01/25 12:13:11;;;;;;;55.67;33.57;;;1.80;99.90;;;;;;5057230;28;20882;-91
2023/01/25 12:15:56;;;;;;;57.97;33.93;;;1.60;99.90;;;;;;5060274;28;20951;-91
2023/01/25 12:18:47;;;;;;;56.07;33.53;;;1.50;99.90;;;;;;5059927;28;20449;-92
2023/01/25 12:21:25;;;;;;;57.97;33.10;;;1.00;99.90;;;;;;5056897;28;20458;-92
2023/01/25 12:24:08;;;;;;;61.37;34.27;;;1.00;99.90;;;;;;5091854;28;20515;-90
2023/01/25 12:26:45;;;;;;;58.17;34.70;;;1.20;99.90;;;;;;5085302;28;20930;-92
2023/01/25 12:29:23;;;;;;;64.20;34.60;;;1.40;99.90;;;;;;5090458;28;20440;-91
2023/01/25 12:31:55;;;;;;;56.40;32.70;;;1.40;99.90;;;;;;5096127;28;20481;-92
2023/01/25 12:34:27;;;;;;;59.13;34.60;;;1.30;99.90;;;;;;5048731;28;20459;-93
2023/01/25 12:36:56;;;;;;;63.60;36.67;;;1.50;99.90;;;;;;5087653;28;20753;-92
2023/01/25 12:39:35;;;;;;;63.20;35.93;;;1.40;99.90;;;;;;5066930;28;20450;-93
2023/01/25 12:42:09;;;;;;;64.67;37.17;;;1.40;99.90;;;;;;5086260;28;20863;-93
2023/01/25 12:44:41;;;;;;;64.00;35.70;;;1.40;99.90;;;;;;5083658;28;20810;-93
2023/01/25 12:47:16;;;;;;;62.20;36.03;;;1.40;99.90;;;;;;5096016;28;20446;-92
2023/01/25 12:49:48;;;;;;;62.73;35.90;;;1.40;99.90;;;;;;5058617;28;20438;-91
2023/01/25 12:52:24;;;;;;;63.93;37.27;;;1.30;99.90;;;;;;5069870;28;20542;-93
2023/01/25 12:54:53;;;;;;;64.90;34.87;;;1.20;99.90;;;;;;5063294;28;20488;-89
2023/01/25 12:57:25;;;;;;;65.80;37.33;;;1.20;99.90;;;;;;5061509;28;20444;-91
2023/01/25 13:00:00;;;;;;;62.97;37.23;;;1.00;99.90;;;;;;5084821;28;20445;-93
2023/01/25 13:02:52;;;;;;;61.20;35.67;;;1.20;99.90;;;;;;5058552;28;20457;-92
2023/01/25 13:05:36;;;;;;;62.93;36.30;;;1.10;99.90;;;;;;5082309;28;20458;-91
2023/01/25 13:08:17;;;;;;;63.23;35.63;;;1.10;99.90;;;;;;5082149;28;20453;-91
2023/01/25 13:10:48;;;;;;;62.33;35.00;;;1.20;99.90;;;;;;5064217;28;20842;-89
2023/01/25 13:13:24;;;;;;;60.73;34.83;;;1.30;99.90;;;;;;5076250;28;21003;-91
2023/01/25 13:15:53;;;;;;;67.93;36.13;;;1.20;99.90;;;;;;5065485;28;20462;-91
2023/01/25 13:18:41;;;;;;;67.47;36.03;;;1.00;99.90;;;;;;5074473;28;20470;-90
2023/01/25 13:21:40;;;;;;;61.73;35.03;;;1.00;99.90;;;;;;5057319;28;20542;-93
2023/01/25 13:24:17;;;;;;;68.03;36.67;;;1.00;99.90;;;;;;5076063;28;20561;-89
2023/01/25 13:27:25;;;;;;;66.80;36.37;;;1.00;99.90;;;;;;5062982;28;20452;-90
2023/01/25 13:29:57;;;;;;;67.50;36.53;;;1.00;99.90;;;;;;5075522;28;20442;-91
2023/01/25 13:32:55;;;;;;;80.43;39.27;;;1.00;99.90;;;;;;5071035;28;20446;-91
2023/01/25 13:35:32;;;;;;;65.40;36.40;;;1.10;99.90;;;;;;5073417;28;20456;-91
2023/01/25 13:38:18;;;;;;;64.23;36.73;;;1.10;99.90;;;;;;5061834;28;20487;-91
2023/01/25 13:40:45;;;;;;;69.67;35.93;;;1.10;99.90;;;;;;5072749;28;20482;-90
2023/01/25 13:43:22;;;;;;;68.33;36.50;;;1.10;99.90;;;;;;5065119;28;20995;-90
2023/01/25 13:45:53;;;;;;;67.40;36.43;;;1.00;99.90;;;;;;5072110;28;20443;-91
2023/01/25 13:48:23;;;;;;;68.83;36.20;;;1.00;99.90;;;;;;5067880;28;20845;-91
2023/01/25 13:50:53;;;;;;;68.20;35.47;;;1.00;99.90;;;;;;5062230;28;20909;-91
2023/01/25 13:53:23;;;;;;;70.20;36.10;;;1.00;99.90;;;;;;5076009;28;20497;-91
2023/01/25 13:55:52;;;;;;;66.63;34.60;;;0.80;99.90;;;;;;5094838;28;20561;-92
2023/01/25 13:58:22;;;;;;;73.82;52.45;;;0.80;99.90;;;;;;5093346;28;20517;-90
2023/01/25 14:00:51;;;;;;;64.57;38.80;;;1.00;99.90;;;;;;5074804;28;20641;-92
2023/01/25 14:03:19;;;;;;;64.20;36.37;;;0.90;99.90;;;;;;5089241;28;20458;-91
2023/01/25 14:05:51;;;;;;;65.33;35.43;;;0.80;99.90;;;;;;5070388;28;20531;-91
2023/01/25 14:08:19;;;;;;;64.47;33.63;;;0.70;99.90;;;;;;5093529;28;20434;-91
2023/01/25 14:10:49;;;;;;;64.53;36.60;;;0.70;99.90;;;;;;5039211;28;20472;-91
2023/01/25 14:13:17;;;;;;;63.83;33.40;;;0.90;99.90;;;;;;5042965;28;20466;-92
2023/01/25 14:27:23;;;;;;;69.20;36.83;;;0.60;99.90;;;;;;5081533;28;20210;-91
2023/01/25 14:30:44;;;;;;;64.70;34.33;;;0.80;99.90;;;;;;5108709;28;20444;-90
2023/01/25 14:39:16;;;;;;;79.00;35.13;;;0.90;99.90;;;;;;5075268;28;20442;-93
2023/01/25 14:42:09;;;;;;;72.57;37.60;;;1.00;99.90;;;;;;5070206;28;20451;-91
2023/01/25 14:57:45;;;;;;;63.80;35.10;;;1.50;99.90;;;;;;5109896;23;20477;-85
2023/01/25 15:00:38;;;;;;;68.17;35.47;;;1.60;99.90;;;;;;5096339;28;20437;-85
2023/01/25 15:03:08;;;;;;;64.07;35.83;;;1.40;99.90;;;;;;5093298;28;20490;-84
2023/01/25 15:05:47;;;;;;;64.77;36.03;;;1.30;99.90;;;;;;5093900;28;20450;-84
2023/01/25 15:08:39;;;;;;;72.53;37.07;;;1.30;99.90;;;;;;5092442;28;20447;-83
2023/01/25 15:14:26;;;;;;;69.33;35.43;;;0.90;99.90;;;;;;5114925;28;20456;-84
2023/01/25 15:17:04;;;;;;;71.73;37.37;;;0.70;99.90;;;;;;5097138;28;20463;-84
2023/01/25 15:19:57;;;;;;;74.27;36.83;;;0.80;99.90;;;;;;5114319;28;20430;-85
2023/01/25 15:22:32;;;;;;;72.00;37.87;;;0.80;99.90;;;;;;5097339;28;20447;-85
2023/01/25 15:25:06;;;;;;;67.20;35.90;;;0.90;99.90;;;;;;5114574;28;20437;-84
2023/01/25 15:27:41;;;;;;;69.77;36.53;;;1.00;99.90;;;;;;5113831;28;20450;-84
2023/01/25 15:30:15;;;;;;;69.17;36.33;;;0.90;99.90;;;;;;5114714;28;20452;-82
2023/01/25 15:33:05;;;;;;;75.17;38.63;;;0.80;99.90;;;;;;5114000;28;20485;-83